createdAt,value
2018-04-02T00:01:33.000Z,2.65
2018-04-02T00:04:02.385Z,3.03
2018-04-02T00:06:31.476Z,2.35
2018-04-02T00:09:00.536Z,2.65
2018-04-02T00:11:29.558Z,2.47
2018-04-02T00:13:58.688Z,2.20
2018-04-02T00:16:27.715Z,2.00
2018-04-02T00:18:57.526Z,3.17
2018-04-02T00:21:26.601Z,2.28
2018-04-02T00:23:56.427Z,1.95
2018-04-02T00:26:25.714Z,3.35
2018-04-02T00:28:55.536Z,4.07
2018-04-02T00:31:24.600Z,3.10
2018-04-02T00:33:53.664Z,1.55
2018-04-02T00:36:22.911Z,2.55
2018-04-02T00:38:52.234Z,2.25
2018-04-02T00:41:21.262Z,3.62
2018-04-02T00:43:50.340Z,2.50
2018-04-02T00:46:19.355Z,2.33
2018-04-02T00:48:48.406Z,3.75
2018-04-02T00:51:17.459Z,1.60
2018-04-02T00:53:46.472Z,1.52
2018-04-02T00:56:16.248Z,2.08
2018-04-02T00:58:45.327Z,1.73
2018-04-02T01:01:14.343Z,2.05
2018-04-02T01:03:43.355Z,2.55
2018-04-02T01:06:14.077Z,2.95
2018-04-02T01:08:43.094Z,3.25
2018-04-02T01:11:12.138Z,3.42
2018-04-02T01:13:41.468Z,1.80
2018-04-02T01:16:10.470Z,1.85
2018-04-02T01:18:40.274Z,2.60
2018-04-02T01:21:10.044Z,1.60
2018-04-02T01:23:39.082Z,1.65
2018-04-02T01:26:08.889Z,3.60
2018-04-02T01:28:37.953Z,1.77
2018-04-02T01:31:06.997Z,1.92
2018-04-02T01:33:36.007Z,3.33
2018-04-02T01:36:05.061Z,2.17
2018-04-02T01:38:34.827Z,2.20
2018-04-02T01:41:03.861Z,1.75
2018-04-02T01:43:33.622Z,2.28
2018-04-02T01:46:02.677Z,2.50
2018-04-02T01:48:31.681Z,1.85
2018-04-02T01:51:00.706Z,1.95
2018-04-02T01:53:29.787Z,1.95
2018-04-02T01:55:58.841Z,1.90
2018-04-02T01:58:28.614Z,1.65
2018-04-02T02:00:57.663Z,2.17
2018-04-02T02:03:26.689Z,2.05
2018-04-02T02:05:55.744Z,4.43
2018-04-02T02:08:24.754Z,1.85
2018-04-02T02:10:53.807Z,3.83
2018-04-02T02:13:23.579Z,1.50
2018-04-02T02:15:52.631Z,1.45
2018-04-02T02:18:21.631Z,1.87
2018-04-02T02:20:50.751Z,2.55
2018-04-02T02:23:19.765Z,2.10
2018-04-02T02:25:48.822Z,2.30
2018-04-02T02:28:17.822Z,2.17
2018-04-02T02:30:46.818Z,2.10
2018-04-02T02:33:15.875Z,2.20
2018-04-02T02:35:45.639Z,2.22
2018-04-02T02:38:14.678Z,1.73
2018-04-02T02:40:43.688Z,2.05
2018-04-02T02:43:12.716Z,2.00
2018-04-02T02:45:41.735Z,1.77
2018-04-02T02:48:11.524Z,1.65
2018-04-02T02:50:40.529Z,2.53
2018-04-02T02:53:09.587Z,2.00
2018-04-02T02:55:38.585Z,2.50
2018-04-02T02:58:07.636Z,1.30
2018-04-02T03:00:36.641Z,1.80
2018-04-02T03:03:05.699Z,2.00
2018-04-02T03:05:34.698Z,2.03
2018-04-02T03:08:04.502Z,1.48
2018-04-02T03:10:33.506Z,2.35
2018-04-02T03:13:03.341Z,2.97
2018-04-02T03:15:32.338Z,1.83
2018-04-02T03:18:01.334Z,1.95
2018-04-02T03:20:30.372Z,2.00
2018-04-02T03:22:59.362Z,2.55
2018-04-02T03:25:28.398Z,1.58
2018-04-02T03:27:57.413Z,1.60
2018-04-02T03:30:26.506Z,1.55
2018-04-02T03:32:55.522Z,1.75
2018-04-02T03:35:24.561Z,1.33
2018-04-02T03:37:53.566Z,1.48
2018-04-02T03:40:22.604Z,1.45
2018-04-02T03:42:51.598Z,1.02
2018-04-02T03:45:20.642Z,2.78
2018-04-02T03:47:49.678Z,2.15
2018-04-02T03:50:18.714Z,1.87
2018-04-02T03:52:48.483Z,3.47
2018-04-02T03:55:17.906Z,1.20
2018-04-02T03:57:46.905Z,1.73
2018-04-02T04:00:16.730Z,1.10
2018-04-02T04:02:45.732Z,2.00
2018-04-02T04:05:14.731Z,1.60
2018-04-02T04:07:43.762Z,1.60
2018-04-02T04:10:12.769Z,1.48
2018-04-02T04:12:41.827Z,1.45
2018-04-02T04:15:10.830Z,1.75
2018-04-02T04:17:39.831Z,1.90
2018-04-02T04:20:08.856Z,2.15
2018-04-02T04:22:38.634Z,0.90
2018-04-02T04:25:07.635Z,1.17
2018-04-02T04:27:36.691Z,1.42
2018-04-02T04:30:05.699Z,1.37
2018-04-02T04:32:34.703Z,1.87
2018-04-02T04:35:03.753Z,1.40
2018-04-02T04:37:32.802Z,1.17
2018-04-02T04:40:01.802Z,1.75
2018-04-02T04:42:31.635Z,1.33
2018-04-02T04:45:01.395Z,1.27
2018-04-02T04:47:30.406Z,1.10
2018-04-02T04:49:59.445Z,1.48
2018-04-02T04:52:28.454Z,5.18
2018-04-02T04:54:57.454Z,1.12
2018-04-02T04:57:26.507Z,1.27
2018-04-02T04:59:55.550Z,1.95
2018-04-02T05:02:24.549Z,1.08
2018-04-02T05:04:53.604Z,2.03
2018-04-02T05:07:22.606Z,2.25
2018-04-02T05:09:51.650Z,1.62
2018-04-02T05:12:21.455Z,2.80
2018-04-02T05:14:50.512Z,1.15
2018-04-02T05:17:19.745Z,1.35
2018-04-02T05:19:48.794Z,2.42
2018-04-02T05:22:17.789Z,2.22
2018-04-02T05:24:46.841Z,1.45
2018-04-02T05:27:16.606Z,2.95
2018-04-02T05:29:45.659Z,2.10
2018-04-02T05:32:14.686Z,2.47
2018-04-02T05:34:43.713Z,1.85
2018-04-02T05:37:13.483Z,1.60
2018-04-02T05:39:42.528Z,1.95
2018-04-02T05:42:11.529Z,1.60
2018-04-02T05:44:40.570Z,1.35
2018-04-02T05:47:09.618Z,1.55
2018-04-02T05:49:38.651Z,2.28
2018-04-02T05:52:07.699Z,2.15
2018-04-02T05:54:37.460Z,1.65
2018-04-02T05:57:06.515Z,1.92
2018-04-02T05:59:35.573Z,4.05
2018-04-02T06:02:04.586Z,1.42
2018-04-02T06:04:34.409Z,1.23
2018-04-02T06:07:03.426Z,2.47
2018-04-02T06:09:33.509Z,3.08
2018-04-02T06:12:02.521Z,1.75
2018-04-02T06:14:31.526Z,4.07
2018-04-02T06:17:00.567Z,3.67
2018-04-02T06:19:29.577Z,1.95
2018-04-02T06:21:59.389Z,3.33
2018-04-02T06:24:28.399Z,3.83
2018-04-02T06:26:57.435Z,2.75
2018-04-02T06:29:26.462Z,3.22
2018-04-02T06:31:56.260Z,3.20
2018-04-02T06:34:25.279Z,4.10
2018-04-02T06:36:54.390Z,3.15
2018-04-02T06:39:23.335Z,3.30
2018-04-02T06:41:52.390Z,5.12
2018-04-02T06:44:21.409Z,3.08
2018-04-02T06:46:50.422Z,5.07
2018-04-02T06:49:19.454Z,4.32
2018-04-02T06:51:48.452Z,3.67
2018-04-02T06:54:17.514Z,4.18
2018-04-02T06:56:47.348Z,6.35
2018-04-02T06:59:16.346Z,4.80
2018-04-02T07:01:45.402Z,5.40
2018-04-02T07:04:15.188Z,3.65
2018-04-02T07:06:44.328Z,5.00
2018-04-02T07:09:13.324Z,4.80
2018-04-02T07:11:42.333Z,3.53
2018-04-02T07:14:11.391Z,5.80
2018-04-02T07:16:40.416Z,6.15
2018-04-02T07:19:09.533Z,5.18
2018-04-02T07:21:38.591Z,4.35
2018-04-02T07:24:07.653Z,5.28
2018-04-02T07:26:36.672Z,4.28
2018-04-02T07:29:06.590Z,2.62
2018-04-02T07:31:35.591Z,4.20
2018-04-02T07:34:04.636Z,3.67
2018-04-02T07:36:33.666Z,2.95
2018-04-02T07:39:02.722Z,5.43
2018-04-02T07:41:31.731Z,2.95
2018-04-02T07:44:00.798Z,6.28
2018-04-02T07:46:30.682Z,3.45
2018-04-02T07:49:01.205Z,3.15
2018-04-02T07:51:30.228Z,3.60
2018-04-02T07:53:59.257Z,3.92
2018-04-02T07:56:28.320Z,5.43
2018-04-02T07:58:57.398Z,3.40
2018-04-02T08:01:27.254Z,2.77
2018-04-02T08:03:56.390Z,2.73
2018-04-02T08:06:25.405Z,4.33
2018-04-02T08:08:54.459Z,3.20
2018-04-02T08:11:23.487Z,2.90
2018-04-02T08:13:52.539Z,2.80
2018-04-02T08:16:21.557Z,3.30
2018-04-02T08:18:50.574Z,5.03
2018-04-02T08:21:19.696Z,3.47
2018-04-02T08:23:48.674Z,2.73
2018-04-02T08:26:17.697Z,3.57
2018-04-02T08:28:47.534Z,2.10
2018-04-02T08:31:16.539Z,3.40
2018-04-02T08:33:45.565Z,3.00
2018-04-02T08:36:14.627Z,2.60
2018-04-02T08:38:43.673Z,1.90
2018-04-02T08:41:12.760Z,3.23
2018-04-02T08:43:41.772Z,2.93
2018-04-02T08:46:11.545Z,2.63
2018-04-02T08:48:40.602Z,2.67
2018-04-02T08:51:09.614Z,2.20
2018-04-02T08:53:38.645Z,2.17
2018-04-02T08:56:07.714Z,2.17
2018-04-02T08:58:36.738Z,1.20
2018-04-02T09:01:05.814Z,1.70
2018-04-02T09:03:34.833Z,2.37
2018-04-02T09:06:03.876Z,1.30
2018-04-02T09:08:32.908Z,2.10
2018-04-02T09:11:01.926Z,2.17
2018-04-02T09:13:31.019Z,1.47
2018-04-02T09:16:00.032Z,1.80
2018-04-02T09:18:29.050Z,4.57
2018-04-02T09:20:58.090Z,3.10
2018-04-02T09:23:27.112Z,2.03
2018-04-02T09:25:56.129Z,2.23
2018-04-02T09:28:25.182Z,2.60
2018-04-02T09:30:54.200Z,2.37
2018-04-02T09:33:23.257Z,2.37
2018-04-02T09:35:52.277Z,3.23
2018-04-02T09:38:21.333Z,2.80
2018-04-02T09:40:50.350Z,2.13
2018-04-02T09:43:20.149Z,2.70
2018-04-02T09:45:49.169Z,1.73
2018-04-02T09:48:18.990Z,2.87
2018-04-02T09:50:47.993Z,2.47
2018-04-02T09:53:17.000Z,1.70
2018-04-02T09:55:49.005Z,2.67
2018-04-02T09:58:21.273Z,1.70
2018-04-02T10:00:50.356Z,1.83
2018-04-02T10:03:19.390Z,1.63
2018-04-02T10:05:49.250Z,2.03
2018-04-02T10:08:18.350Z,1.87
2018-04-02T10:10:47.446Z,1.43
2018-04-02T10:13:16.466Z,2.87
2018-04-02T10:15:45.563Z,2.20
2018-04-02T10:18:15.493Z,1.97
2018-04-02T10:20:46.589Z,1.83
2018-04-02T10:23:15.658Z,2.00
2018-04-02T10:25:44.710Z,1.57
2018-04-02T10:28:15.623Z,1.50
2018-04-02T10:30:44.691Z,1.53
2018-04-02T10:33:13.673Z,1.83
2018-04-02T10:35:42.989Z,1.53
2018-04-02T10:38:12.423Z,1.50
2018-04-02T10:40:43.373Z,1.70
2018-04-02T10:43:13.725Z,1.70
2018-04-02T10:45:42.971Z,1.97
2018-04-02T10:48:11.987Z,2.00
2018-04-02T10:50:41.004Z,1.60
2018-04-02T10:53:12.344Z,1.43
2018-04-02T10:55:42.552Z,1.30
2018-04-02T10:58:11.862Z,1.63
2018-04-02T11:00:41.336Z,1.20
2018-04-02T11:03:10.488Z,1.23
2018-04-02T11:05:39.587Z,1.33
2018-04-02T11:08:08.653Z,1.90
2018-04-02T11:10:37.679Z,1.73
2018-04-02T11:13:06.694Z,2.90
2018-04-02T11:15:35.780Z,1.23
2018-04-02T11:18:04.819Z,2.20
2018-04-02T11:20:34.638Z,1.63
2018-04-02T11:23:03.737Z,1.33
2018-04-02T11:25:32.866Z,1.60
2018-04-02T11:28:01.896Z,1.37
2018-04-02T11:30:30.965Z,1.50
2018-04-02T11:33:00.023Z,1.47
2018-04-02T11:35:29.823Z,1.33
2018-04-02T11:37:58.938Z,2.37
2018-04-02T11:40:28.726Z,2.10
2018-04-02T11:42:57.881Z,1.33
2018-04-02T11:45:26.884Z,1.47
2018-04-02T11:47:55.970Z,2.00
2018-04-02T11:50:25.005Z,1.30
2018-04-02T11:52:54.025Z,1.20
2018-04-02T11:55:23.090Z,1.30
2018-04-02T11:57:52.177Z,1.37
2018-04-02T12:00:21.252Z,1.37
2018-04-02T12:02:50.286Z,1.30
2018-04-02T12:05:19.367Z,1.23
2018-04-02T12:07:48.826Z,1.30
2018-04-02T12:10:18.770Z,1.50
2018-04-02T12:12:47.835Z,1.10
2018-04-02T12:15:17.052Z,1.20
2018-04-02T12:17:46.359Z,3.67
2018-04-02T12:20:15.576Z,1.40
2018-04-02T12:22:45.391Z,1.77
2018-04-02T12:25:14.646Z,1.33
2018-04-02T12:27:44.011Z,1.50
2018-04-02T12:30:13.078Z,1.77
2018-04-02T12:32:42.178Z,1.87
2018-04-02T12:35:11.252Z,1.63
2018-04-02T12:37:40.273Z,1.20
2018-04-02T12:40:09.334Z,1.67
2018-04-02T12:42:38.350Z,1.13
2018-04-02T12:45:07.430Z,1.17
2018-04-02T12:47:36.498Z,1.20
2018-04-02T12:50:05.538Z,1.33
2018-04-02T12:52:34.604Z,1.40
2018-04-02T12:55:03.719Z,1.63
2018-04-02T12:57:32.730Z,1.40
2018-04-02T13:00:01.782Z,1.13
2018-04-02T13:02:33.780Z,1.30
2018-04-02T13:05:03.057Z,1.30
2018-04-02T13:07:32.142Z,1.40
2018-04-02T13:10:01.191Z,1.30
2018-04-02T13:12:30.234Z,1.47
2018-04-02T13:17:34.521Z,1.40
2018-04-02T13:20:03.582Z,1.73
2018-04-02T13:22:32.652Z,1.80
2018-04-02T13:25:50.403Z,1.20
2018-04-02T13:28:24.462Z,1.27
2018-04-02T13:30:54.288Z,1.67
2018-04-02T13:33:23.332Z,1.33
2018-04-02T13:35:52.344Z,1.40
2018-04-02T13:38:21.400Z,1.33
2018-04-02T13:40:50.414Z,1.47
2018-04-02T13:43:19.473Z,1.30
2018-04-02T13:45:48.627Z,1.20
2018-04-02T13:48:17.651Z,1.20
2018-04-02T13:50:47.495Z,1.20
2018-04-02T13:53:16.509Z,1.50
2018-04-02T13:55:45.512Z,1.90
2018-04-02T13:58:14.556Z,1.20
2018-04-02T14:00:43.594Z,1.20
2018-04-02T14:03:12.641Z,1.20
2018-04-02T14:05:41.683Z,1.00
2018-04-02T14:08:10.776Z,1.20
2018-04-02T14:10:39.792Z,1.20
2018-04-02T14:13:08.854Z,1.23
2018-04-02T14:15:37.909Z,1.13
2018-04-02T14:18:06.958Z,1.40
2018-04-02T14:20:35.988Z,1.17
2018-04-02T14:23:05.040Z,1.10
2018-04-02T14:25:34.052Z,1.20
2018-04-02T14:28:03.121Z,1.13
2018-04-02T14:30:32.137Z,1.10
2018-04-02T14:33:01.205Z,1.53
2018-04-02T14:35:30.265Z,1.43
2018-04-02T14:37:59.289Z,1.20
2018-04-02T14:40:28.919Z,1.20
2018-04-02T14:42:57.962Z,1.20
2018-04-02T14:45:27.013Z,1.20
2018-04-02T14:47:56.111Z,1.10
2018-04-02T14:50:25.130Z,2.13
2018-04-02T14:52:54.195Z,1.50
2018-04-02T14:55:23.219Z,1.83
2018-04-02T14:57:52.291Z,0.90
2018-04-02T15:00:21.335Z,1.00
2018-04-02T15:02:50.429Z,1.77
2018-04-02T15:05:19.447Z,1.03
2018-04-02T15:07:48.471Z,1.00
2018-04-02T15:10:17.558Z,1.00
2018-04-02T15:12:46.566Z,1.00
2018-04-02T15:15:15.600Z,1.13
2018-04-02T15:17:44.636Z,1.10
2018-04-02T15:20:13.715Z,1.00
2018-04-02T15:22:42.991Z,1.30
2018-04-02T15:25:12.134Z,0.93
2018-04-02T15:27:41.470Z,1.00
2018-04-02T15:30:11.885Z,1.10
2018-04-02T15:32:43.009Z,1.00
2018-04-02T15:35:12.940Z,0.90
2018-04-02T15:37:42.047Z,1.00
2018-04-02T15:40:12.583Z,1.00
2018-04-02T15:42:42.083Z,1.00
2018-04-02T15:45:11.116Z,1.47
2018-04-02T15:47:40.129Z,0.90
2018-04-02T15:50:09.379Z,0.90
2018-04-02T15:52:38.647Z,1.20
2018-04-02T15:55:09.415Z,1.33
2018-04-02T15:57:39.009Z,0.90
2018-04-02T16:00:08.089Z,1.00
2018-04-02T16:02:37.162Z,0.90
2018-04-02T16:05:06.474Z,0.90
2018-04-02T16:07:38.119Z,0.90
2018-04-02T16:10:08.434Z,0.90
2018-04-02T16:12:37.639Z,0.90
2018-04-02T16:15:06.656Z,1.00
2018-04-02T16:17:36.750Z,0.80
2018-04-02T16:20:05.812Z,3.00
2018-04-02T16:22:34.862Z,0.93
2018-04-02T16:25:05.114Z,1.03
2018-04-02T16:27:34.176Z,0.80
2018-04-02T16:30:03.963Z,3.93
2018-04-02T16:32:33.018Z,1.27
2018-04-02T16:35:02.029Z,0.90
2018-04-02T16:37:31.095Z,0.90
2018-04-02T16:40:00.120Z,0.90
2018-04-02T16:42:29.357Z,0.90
2018-04-02T16:44:59.132Z,1.00
2018-04-02T16:47:28.166Z,1.00
2018-04-02T16:49:58.273Z,0.93
2018-04-02T16:52:27.309Z,1.00
2018-04-02T16:54:56.473Z,1.00
2018-04-02T16:57:25.545Z,1.40
2018-04-02T16:59:54.638Z,1.10
2018-04-02T17:02:23.676Z,0.97
2018-04-02T17:04:52.735Z,1.10
2018-04-02T17:07:21.764Z,1.27
2018-04-02T17:09:50.830Z,1.93
2018-04-02T17:12:19.846Z,2.20
2018-04-02T17:14:48.862Z,1.20
2018-04-02T17:17:17.962Z,1.93
2018-04-02T17:19:47.004Z,1.00
2018-04-02T17:22:16.036Z,1.03
2018-04-02T17:24:45.206Z,1.50
2018-04-02T17:27:14.225Z,0.90
2018-04-02T17:29:43.266Z,1.60
2018-04-02T17:32:12.544Z,0.90
2018-04-02T17:34:41.563Z,0.90
2018-04-02T17:37:10.652Z,0.90
2018-04-02T17:39:39.697Z,1.10
2018-04-02T17:42:08.784Z,1.50
2018-04-02T17:44:37.821Z,7.23
2018-04-02T17:47:06.903Z,0.80
2018-04-02T17:49:36.298Z,0.80
2018-04-02T17:52:05.415Z,0.80
2018-04-02T17:54:34.435Z,1.30
2018-04-02T17:57:03.681Z,1.00
2018-04-02T17:59:32.702Z,0.80
2018-04-02T18:02:01.820Z,0.80
2018-04-02T18:04:30.951Z,0.80
2018-04-02T18:07:01.667Z,1.23
2018-04-02T18:09:31.668Z,1.03
2018-04-02T18:12:01.470Z,0.80
2018-04-02T18:14:30.590Z,1.00
2018-04-02T18:16:59.777Z,0.80
2018-04-02T18:19:29.553Z,1.40
2018-04-02T18:21:58.676Z,1.77
2018-04-02T18:24:27.702Z,2.17
2018-04-02T18:26:56.758Z,1.40
2018-04-02T18:29:26.590Z,2.33
2018-04-02T18:31:55.650Z,0.80
2018-04-02T18:34:24.723Z,0.80
2018-04-02T18:36:53.773Z,1.00
2018-04-02T18:39:22.822Z,0.80
2018-04-02T18:41:51.942Z,1.10
2018-04-02T18:44:21.739Z,0.80
2018-04-02T18:46:50.745Z,0.80
2018-04-02T18:49:20.841Z,0.80
2018-04-02T18:51:50.846Z,0.80
2018-04-02T18:54:20.052Z,1.10
2018-04-02T18:56:49.183Z,1.17
2018-04-02T18:59:18.982Z,1.83
2018-04-02T19:01:51.955Z,1.20
2018-04-02T19:04:21.114Z,1.00
2018-04-02T19:06:50.150Z,1.07
2018-04-02T19:09:19.579Z,2.40
2018-04-02T19:11:49.501Z,0.83
2018-04-02T19:14:18.590Z,1.30
2018-04-02T19:16:47.655Z,1.70
2018-04-02T19:19:16.682Z,3.50
2018-04-02T19:21:45.926Z,1.80
2018-04-02T19:24:14.998Z,8.40
2018-04-02T19:26:44.062Z,6.33
2018-04-02T19:29:13.214Z,2.93
2018-04-02T19:31:42.533Z,1.33
2018-04-02T19:34:11.958Z,1.10
2018-04-02T19:36:40.998Z,1.67
2018-04-02T19:39:11.904Z,1.47
2018-04-02T19:41:41.422Z,1.63
2018-04-02T19:44:10.483Z,1.10
2018-04-02T19:46:39.641Z,1.20
2018-04-02T19:49:08.697Z,3.37
2018-04-02T19:51:38.625Z,6.87
2018-04-02T19:54:07.722Z,6.33
2018-04-02T19:56:36.777Z,1.93
2018-04-02T19:59:06.563Z,1.40
2018-04-02T20:01:35.622Z,1.67
2018-04-02T20:04:04.644Z,1.00
2018-04-02T20:06:33.696Z,1.20
2018-04-02T20:09:02.710Z,1.10
2018-04-02T20:11:31.871Z,2.10
2018-04-02T20:14:01.250Z,2.63
2018-04-02T20:16:30.422Z,2.30
2018-04-02T20:18:59.467Z,2.83
2018-04-02T20:21:28.509Z,1.37
2018-04-02T20:23:57.559Z,1.13
2018-04-02T20:26:26.643Z,1.10
2018-04-02T20:28:55.668Z,2.40
2018-04-02T20:31:24.878Z,1.23
2018-04-02T20:33:53.894Z,1.70
2018-04-02T20:36:22.918Z,1.20
2018-04-02T20:38:51.979Z,1.30
2018-04-02T20:41:21.010Z,1.30
2018-04-02T20:43:50.110Z,1.20
2018-04-02T20:46:19.145Z,1.00
2018-04-02T20:48:48.157Z,1.00
2018-04-02T20:51:17.977Z,0.90
2018-04-02T20:53:47.024Z,0.80
2018-04-02T20:56:16.050Z,0.90
2018-04-02T20:58:45.162Z,1.50
2018-04-02T21:01:14.145Z,0.80
2018-04-02T21:03:43.206Z,0.90
2018-04-02T21:06:12.218Z,1.10
2018-04-02T21:08:41.291Z,0.83
2018-04-02T21:11:10.312Z,0.80
2018-04-02T21:13:39.326Z,0.80
2018-04-02T21:16:08.364Z,1.33
2018-04-02T21:18:37.390Z,1.03
2018-04-02T21:21:06.445Z,2.00
2018-04-02T21:23:36.402Z,2.07
2018-04-02T21:26:05.421Z,1.17
2018-04-02T21:28:34.488Z,0.93
2018-04-02T21:31:03.497Z,1.23
2018-04-02T21:33:33.438Z,1.30
2018-04-02T21:36:02.486Z,0.80
2018-04-02T21:38:31.548Z,0.93
2018-04-02T21:41:00.558Z,0.97
2018-04-02T21:43:29.665Z,0.90
2018-04-02T21:45:59.597Z,3.10
2018-04-02T21:48:28.600Z,1.30
2018-04-02T21:50:57.673Z,1.20
2018-04-02T21:53:26.694Z,1.00
2018-04-02T21:55:55.730Z,0.83
2018-04-02T21:58:24.789Z,0.90
2018-04-02T22:00:53.845Z,0.90
2018-04-02T22:03:22.862Z,0.80
2018-04-02T22:05:51.902Z,1.00
2018-04-02T22:08:20.921Z,1.20
2018-04-02T22:10:50.023Z,1.00
2018-04-02T22:13:19.047Z,0.95
2018-04-02T22:15:48.061Z,1.80
2018-04-02T22:18:17.134Z,0.88
2018-04-02T22:20:46.170Z,1.10
2018-04-02T22:23:15.171Z,0.98
2018-04-02T22:25:44.226Z,0.80
2018-04-02T22:28:16.878Z,1.20
2018-04-02T22:30:45.940Z,0.80
2018-04-02T22:33:15.007Z,1.58
2018-04-02T22:35:44.047Z,1.08
2018-04-02T22:38:13.880Z,1.92
2018-04-02T22:40:42.903Z,1.27
2018-04-02T22:43:11.959Z,0.90
2018-04-02T22:45:40.982Z,0.90
2018-04-02T22:48:10.054Z,1.00
2018-04-02T22:50:39.628Z,1.33
2018-04-02T22:53:08.706Z,2.25
2018-04-02T22:55:37.760Z,1.27
2018-04-02T22:58:07.025Z,0.90
2018-04-02T23:00:36.113Z,0.90
2018-04-02T23:03:05.229Z,0.90
2018-04-02T23:05:34.286Z,1.20
2018-04-02T23:08:03.344Z,1.25
2018-04-02T23:10:32.357Z,0.77
2018-04-02T23:13:01.447Z,1.00
2018-04-02T23:15:30.471Z,1.35
2018-04-02T23:17:59.536Z,1.35
2018-04-02T23:20:28.542Z,0.90
2018-04-02T23:22:57.610Z,0.80
2018-04-02T23:25:26.671Z,0.80
2018-04-02T23:27:55.798Z,0.80
2018-04-02T23:30:25.074Z,1.00
2018-04-02T23:32:54.234Z,1.67
2018-04-02T23:35:23.400Z,0.80
2018-04-02T23:37:53.434Z,0.90
2018-04-02T23:40:22.448Z,2.12
2018-04-02T23:42:51.505Z,1.35
2018-04-02T23:45:20.574Z,2.22
2018-04-02T23:47:49.799Z,1.00
2018-04-02T23:50:19.046Z,0.75
2018-04-02T23:52:48.237Z,1.12
2018-04-02T23:55:17.242Z,1.20
2018-04-02T23:57:46.571Z,1.52
